createdAt,value
2022-09-27T00:00:26.775Z,13.33
2022-09-27T00:02:53.459Z,13.52
2022-09-27T00:05:19.996Z,13.57
2022-09-27T00:07:46.546Z,13.60
2022-09-27T00:10:13.133Z,13.78
2022-09-27T00:12:39.664Z,13.92
2022-09-27T00:15:07.126Z,13.96
2022-09-27T00:17:33.821Z,13.87
2022-09-27T00:20:00.479Z,13.85
2022-09-27T00:22:27.491Z,13.88
2022-09-27T00:24:54.302Z,13.94
2022-09-27T00:27:20.906Z,14.14
2022-09-27T00:29:47.709Z,14.01
2022-09-27T00:32:14.681Z,14.01
2022-09-27T00:34:41.835Z,13.83
2022-09-27T00:37:09.153Z,13.94
2022-09-27T00:39:35.663Z,13.97
2022-09-27T00:42:02.171Z,14.07
2022-09-27T00:44:29.155Z,14.15
2022-09-27T00:46:58.621Z,14.20
2022-09-27T00:49:31.093Z,14.18
2022-09-27T00:52:20.866Z,14.16
2022-09-27T00:54:50.866Z,14.00
2022-09-27T00:57:17.883Z,13.97
2022-09-27T00:59:49.975Z,14.09
2022-09-27T01:02:16.789Z,14.23
2022-09-27T01:04:44.032Z,14.28
2022-09-27T01:07:10.572Z,14.25
2022-09-27T01:09:37.664Z,14.27
2022-09-27T01:12:23.022Z,14.22
2022-09-27T01:15:01.816Z,14.12
2022-09-27T01:17:36.032Z,14.12
2022-09-27T01:20:15.594Z,14.23
2022-09-27T01:22:45.771Z,14.13
2022-09-27T01:25:22.698Z,14.22
2022-09-27T01:28:07.858Z,14.21
2022-09-27T01:30:34.409Z,14.30
2022-09-27T01:33:10.471Z,14.35
2022-09-27T01:35:55.637Z,14.34
2022-09-27T01:38:32.071Z,14.31
2022-09-27T01:41:00.242Z,14.46
2022-09-27T01:43:41.861Z,14.36
2022-09-27T01:46:11.775Z,14.29
2022-09-27T01:49:04.409Z,14.26
2022-09-27T01:51:36.250Z,14.30
2022-09-27T01:54:04.661Z,14.16
2022-09-27T01:56:33.548Z,14.02
2022-09-27T01:59:10.878Z,14.18
2022-09-27T02:01:45.532Z,14.17
2022-09-27T02:04:15.677Z,14.27
2022-09-27T02:07:05.861Z,14.22
2022-09-27T02:09:35.463Z,14.14
2022-09-27T02:12:31.341Z,14.07
2022-09-27T02:15:06.915Z,14.18
2022-09-27T02:17:43.847Z,14.16
2022-09-27T02:20:34.718Z,14.12
2022-09-27T02:23:15.254Z,14.19
2022-09-27T02:25:50.413Z,14.13
2022-09-27T02:28:27.291Z,13.99
2022-09-27T02:30:54.278Z,14.03
2022-09-27T02:33:27.022Z,14.04
2022-09-27T02:35:53.842Z,14.17
2022-09-27T02:38:20.949Z,14.16
2022-09-27T02:40:47.897Z,14.20
2022-09-27T02:43:16.424Z,14.25
2022-09-27T02:45:55.722Z,14.11
2022-09-27T02:48:40.681Z,13.87
2022-09-27T02:51:21.750Z,13.75
2022-09-27T02:54:01.785Z,13.88
2022-09-27T02:57:05.563Z,13.67
2022-09-27T02:59:59.590Z,14.08
2022-09-27T03:02:49.517Z,13.95
2022-09-27T03:05:44.010Z,13.78
2022-09-27T03:08:12.018Z,13.70
2022-09-27T03:10:39.026Z,13.77
2022-09-27T03:13:05.686Z,13.73
2022-09-27T03:15:32.535Z,13.61
2022-09-27T03:18:02.072Z,13.63
2022-09-27T03:20:47.060Z,13.67
2022-09-27T03:23:20.788Z,13.62
2022-09-27T03:25:48.518Z,13.67
2022-09-27T03:28:15.688Z,13.90
2022-09-27T03:30:44.937Z,13.86
2022-09-27T03:33:14.341Z,13.87
2022-09-27T03:35:50.048Z,14.02
2022-09-27T03:38:16.768Z,13.96
2022-09-27T03:40:43.323Z,13.95
2022-09-27T03:43:10.882Z,13.89
2022-09-27T03:45:37.471Z,13.81
2022-09-27T03:48:07.214Z,13.85
2022-09-27T03:50:34.410Z,13.62
2022-09-27T03:53:01.110Z,13.59
2022-09-27T03:55:27.670Z,13.60
2022-09-27T03:57:54.161Z,13.70
2022-09-27T04:00:24.061Z,13.76
2022-09-27T04:02:50.643Z,13.69
2022-09-27T04:05:24.125Z,13.65
2022-09-27T04:07:54.993Z,13.72
2022-09-27T04:10:22.203Z,13.53
2022-09-27T04:12:49.843Z,13.60
2022-09-27T04:15:17.823Z,13.70
2022-09-27T04:17:50.598Z,13.74
2022-09-27T04:20:25.929Z,13.73
2022-09-27T04:22:53.018Z,13.59
2022-09-27T04:25:20.558Z,13.57
2022-09-27T04:27:51.977Z,13.52
2022-09-27T04:30:19.078Z,13.58
2022-09-27T04:33:05.813Z,13.65
2022-09-27T04:36:05.550Z,13.61
2022-09-27T04:38:33.583Z,13.80
2022-09-27T04:41:03.173Z,13.81
2022-09-27T04:43:33.258Z,13.81
2022-09-27T04:46:00.239Z,13.80
2022-09-27T04:48:27.623Z,13.80
2022-09-27T04:50:58.357Z,13.83
2022-09-27T04:53:25.209Z,13.82
2022-09-27T04:55:57.417Z,13.82
2022-09-27T04:58:24.577Z,13.81
2022-09-27T05:00:55.839Z,13.70
2022-09-27T05:03:57.686Z,13.72
2022-09-27T05:06:25.460Z,13.67
2022-09-27T05:08:54.425Z,13.54
2022-09-27T05:11:26.838Z,13.48
2022-09-27T05:14:11.977Z,13.43
2022-09-27T05:16:49.019Z,13.51
2022-09-27T05:19:35.801Z,13.68
2022-09-27T05:22:31.695Z,13.70
2022-09-27T05:24:58.356Z,13.63
2022-09-27T05:27:25.102Z,13.42
2022-09-27T05:29:51.597Z,13.32
2022-09-27T05:32:22.441Z,13.37
2022-09-27T05:34:55.626Z,13.38
2022-09-27T05:37:22.536Z,13.39
2022-09-27T05:39:50.002Z,13.28
2022-09-27T05:42:17.570Z,13.33
2022-09-27T05:44:48.418Z,13.25
2022-09-27T05:47:15.971Z,13.32
2022-09-27T05:49:42.605Z,13.31
2022-09-27T05:52:15.099Z,13.38
2022-09-27T05:54:43.829Z,13.38
2022-09-27T05:57:10.360Z,13.49
2022-09-27T05:59:50.815Z,13.32
2022-09-27T06:02:20.373Z,13.47
2022-09-27T06:04:47.265Z,13.58
2022-09-27T06:07:39.451Z,13.65
2022-09-27T06:10:10.673Z,13.68
2022-09-27T06:12:38.671Z,13.64
2022-09-27T06:15:16.433Z,13.71
2022-09-27T06:17:44.981Z,13.86
2022-09-27T06:20:17.140Z,13.84
2022-09-27T06:22:43.747Z,13.54
2022-09-27T06:25:10.426Z,13.99
2022-09-27T06:27:49.207Z,14.06
2022-09-27T06:30:23.927Z,13.95
2022-09-27T06:33:01.782Z,13.97
2022-09-27T06:35:36.330Z,14.00
2022-09-27T06:38:05.014Z,14.03
2022-09-27T06:40:32.410Z,14.17
2022-09-27T06:43:15.913Z,14.09
2022-09-27T06:46:10.662Z,14.03
2022-09-27T06:49:13.032Z,14.19
2022-09-27T06:51:42.464Z,13.96
2022-09-27T06:54:10.237Z,14.15
2022-09-27T06:56:37.314Z,14.22
2022-09-27T06:59:23.010Z,14.39
2022-09-27T07:01:52.752Z,14.38
2022-09-27T07:04:32.403Z,14.34
2022-09-27T07:07:05.178Z,14.31
2022-09-27T07:09:42.503Z,14.36
2022-09-27T07:12:12.676Z,14.28
2022-09-27T07:14:41.163Z,14.28
2022-09-27T07:17:14.745Z,14.19
2022-09-27T07:19:51.262Z,13.82
2022-09-27T07:22:18.434Z,13.74
2022-09-27T07:24:50.655Z,13.89
2022-09-27T07:27:18.207Z,14.02
2022-09-27T07:29:45.190Z,14.09
2022-09-27T07:32:11.871Z,14.15
2022-09-27T07:34:38.802Z,14.23
2022-09-27T07:37:05.995Z,14.23
2022-09-27T07:39:37.850Z,14.09
2022-09-27T07:42:06.114Z,14.09
2022-09-27T07:44:32.812Z,13.99
2022-09-27T07:47:24.665Z,14.08
2022-09-27T07:50:12.716Z,14.17
2022-09-27T07:53:13.764Z,14.31
2022-09-27T07:55:57.166Z,14.33
2022-09-27T07:58:25.310Z,14.37
2022-09-27T08:00:57.051Z,14.46
2022-09-27T08:03:23.715Z,14.43
2022-09-27T08:05:50.291Z,14.35
2022-09-27T08:08:18.273Z,14.32
2022-09-27T08:10:49.059Z,14.68
2022-09-27T08:13:22.311Z,14.48
2022-09-27T08:15:54.496Z,14.60
2022-09-27T08:18:26.555Z,14.74
2022-09-27T08:20:57.273Z,14.92
2022-09-27T08:23:46.707Z,15.46
2022-09-27T08:26:30.028Z,15.52
2022-09-27T08:29:17.263Z,15.44
2022-09-27T08:31:54.372Z,15.48
2022-09-27T08:34:23.028Z,15.32
2022-09-27T08:36:49.682Z,15.11
2022-09-27T08:39:16.611Z,15.09
2022-09-27T08:41:57.355Z,15.03
2022-09-27T08:44:23.938Z,15.40
2022-09-27T08:47:01.542Z,15.57
2022-09-27T08:49:51.532Z,15.63
2022-09-27T08:52:32.151Z,15.68
2022-09-27T08:55:03.171Z,15.81
2022-09-27T08:57:29.729Z,15.97
2022-09-27T09:00:00.088Z,15.52
2022-09-27T09:02:27.364Z,15.60
2022-09-27T09:04:56.191Z,15.78
2022-09-27T09:07:40.866Z,15.64
2022-09-27T09:10:37.519Z,15.77
2022-09-27T09:13:25.861Z,15.46
2022-09-27T09:16:27.604Z,15.41
2022-09-27T09:19:05.201Z,15.37
2022-09-27T09:22:10.763Z,15.14
2022-09-27T09:24:50.085Z,15.11
2022-09-27T09:27:23.517Z,15.17
2022-09-27T09:30:10.021Z,15.36
2022-09-27T09:32:49.689Z,15.04
2022-09-27T09:35:26.262Z,15.19
2022-09-27T09:37:56.641Z,15.34
2022-09-27T09:40:38.546Z,15.31
2022-09-27T09:43:10.516Z,15.29
2022-09-27T09:45:41.653Z,15.07
2022-09-27T09:48:27.124Z,15.20
2022-09-27T09:50:56.346Z,15.30
2022-09-27T09:53:39.329Z,15.45
2022-09-27T09:56:10.652Z,15.24
2022-09-27T09:58:44.215Z,15.30
2022-09-27T10:01:18.778Z,15.31
2022-09-27T10:03:46.595Z,15.24
2022-09-27T10:06:14.500Z,15.34
2022-09-27T10:08:41.582Z,15.27
2022-09-27T10:11:40.684Z,15.24
2022-09-27T10:14:12.567Z,14.90
2022-09-27T10:16:42.546Z,15.22
2022-09-27T10:19:09.925Z,15.49
2022-09-27T10:21:39.975Z,15.60
2022-09-27T10:24:18.250Z,15.63
2022-09-27T10:26:51.896Z,15.37
2022-09-27T10:29:37.025Z,15.20
2022-09-27T10:32:11.967Z,15.08
2022-09-27T10:34:43.039Z,15.10
2022-09-27T10:37:12.606Z,14.93
2022-09-27T10:39:48.960Z,15.20
2022-09-27T10:42:30.601Z,15.14
2022-09-27T10:44:57.160Z,15.04
2022-09-27T10:47:37.487Z,15.07
2022-09-27T10:50:50.832Z,14.96
2022-09-27T10:53:23.902Z,14.68
2022-09-27T10:56:04.514Z,15.02
2022-09-27T10:58:33.396Z,15.00
2022-09-27T11:01:03.347Z,14.95
2022-09-27T11:03:39.472Z,14.91
2022-09-27T11:06:39.213Z,14.83
2022-09-27T11:09:18.818Z,15.07
2022-09-27T11:11:47.794Z,15.23
2022-09-27T11:14:22.517Z,14.85
2022-09-27T11:16:58.275Z,14.87
2022-09-27T11:19:48.864Z,15.14
2022-09-27T11:22:16.592Z,14.86
2022-09-27T11:24:54.235Z,14.91
2022-09-27T11:27:23.778Z,15.00
2022-09-27T11:30:01.137Z,14.87
2022-09-27T11:33:06.627Z,15.02
2022-09-27T11:35:38.972Z,14.78
2022-09-27T11:38:51.206Z,14.81
2022-09-27T11:41:21.686Z,15.46
2022-09-27T11:44:07.651Z,15.09
2022-09-27T11:46:42.402Z,15.31
2022-09-27T11:49:14.339Z,15.70
2022-09-27T11:51:56.414Z,15.16
2022-09-27T11:54:30.792Z,15.22
2022-09-27T11:57:06.927Z,15.30
2022-09-27T11:59:37.649Z,14.80
2022-09-27T12:02:04.102Z,15.08
2022-09-27T12:04:30.854Z,14.85
2022-09-27T12:07:08.809Z,15.03
2022-09-27T12:09:37.885Z,15.23
2022-09-27T12:12:25.907Z,15.20
2022-09-27T12:14:56.307Z,15.15
2022-09-27T12:17:25.694Z,14.98
2022-09-27T12:19:55.191Z,15.02
2022-09-27T12:22:57.563Z,14.94
2022-09-27T12:25:34.326Z,14.76
2022-09-27T12:28:28.442Z,14.69
2022-09-27T12:31:17.679Z,14.78
2022-09-27T12:33:56.044Z,14.90
2022-09-27T12:36:25.663Z,14.69
2022-09-27T12:38:56.122Z,14.84
2022-09-27T12:41:24.086Z,14.84
2022-09-27T12:44:05.737Z,14.89
2022-09-27T12:46:41.548Z,14.69
2022-09-27T12:49:21.358Z,14.78
2022-09-27T12:52:09.839Z,14.63
2022-09-27T12:55:01.934Z,14.70
2022-09-27T12:57:31.551Z,14.92
2022-09-27T13:00:01.383Z,15.04
2022-09-27T13:02:37.529Z,15.03
2022-09-27T13:05:22.439Z,14.95
2022-09-27T13:08:19.102Z,14.96
2022-09-27T13:10:47.367Z,15.15
2022-09-27T13:13:26.569Z,15.20
2022-09-27T13:15:56.876Z,15.32
2022-09-27T13:18:36.062Z,15.51
2022-09-27T13:21:07.757Z,15.82
2022-09-27T13:23:42.287Z,15.52
2022-09-27T13:26:23.810Z,15.46
2022-09-27T13:28:59.802Z,15.50
2022-09-27T13:31:52.071Z,15.80
2022-09-27T13:34:37.346Z,15.93
2022-09-27T13:37:23.038Z,15.83
2022-09-27T13:39:49.704Z,15.76
2022-09-27T13:42:39.336Z,15.66
2022-09-27T13:45:17.511Z,15.52
2022-09-27T13:47:46.933Z,15.77
2022-09-27T13:50:29.212Z,15.71
2022-09-27T13:53:08.276Z,15.60
2022-09-27T13:55:40.359Z,15.43
2022-09-27T13:58:27.842Z,15.34
2022-09-27T14:00:58.579Z,15.40
2022-09-27T14:03:45.233Z,15.33
2022-09-27T14:06:22.493Z,15.50
2022-09-27T14:08:51.666Z,15.53
2022-09-27T14:11:24.968Z,15.48
2022-09-27T14:13:52.270Z,15.54
2022-09-27T14:16:22.058Z,15.38
2022-09-27T14:18:58.461Z,15.57
2022-09-27T14:21:38.268Z,15.75
2022-09-27T14:24:30.609Z,15.46
2022-09-27T14:27:21.093Z,15.35
2022-09-27T14:29:57.973Z,15.23
2022-09-27T14:32:28.967Z,15.18
2022-09-27T14:35:27.307Z,14.92
2022-09-27T14:37:54.386Z,14.94
2022-09-27T14:40:22.234Z,15.02
2022-09-27T14:42:53.281Z,15.04
2022-09-27T14:45:19.698Z,15.07
2022-09-27T14:47:47.350Z,14.95
2022-09-27T14:50:18.849Z,15.02
2022-09-27T14:52:47.405Z,14.99
2022-09-27T14:55:13.977Z,15.21
2022-09-27T14:57:46.095Z,15.13
2022-09-27T15:00:20.911Z,15.07
2022-09-27T15:02:48.668Z,14.92
2022-09-27T15:05:16.607Z,15.16
2022-09-27T15:07:44.022Z,15.16
2022-09-27T15:10:17.033Z,15.15
2022-09-27T15:12:46.565Z,15.52
2022-09-27T15:15:13.963Z,15.20
2022-09-27T15:17:44.619Z,15.07
2022-09-27T15:20:31.058Z,15.15
2022-09-27T15:23:04.908Z,15.44
2022-09-27T15:25:36.702Z,15.44
2022-09-27T15:28:11.938Z,15.35
2022-09-27T15:30:39.854Z,15.23
2022-09-27T15:33:07.611Z,15.38
2022-09-27T15:35:35.829Z,15.33
2022-09-27T15:38:11.563Z,15.04
2022-09-27T15:40:42.904Z,14.93
2022-09-27T15:43:19.991Z,14.90
2022-09-27T15:45:50.506Z,15.02
2022-09-27T15:48:18.537Z,15.09
2022-09-27T15:50:45.042Z,15.13
2022-09-27T15:53:11.521Z,15.09
2022-09-27T15:55:42.213Z,15.02
2022-09-27T15:58:14.149Z,14.93
2022-09-27T16:00:50.494Z,14.95
2022-09-27T16:03:16.973Z,14.70
2022-09-27T16:05:43.885Z,14.51
2022-09-27T16:08:10.934Z,14.46
2022-09-27T16:10:43.914Z,14.49
2022-09-27T16:13:10.462Z,14.14
2022-09-27T16:15:37.323Z,14.18
2022-09-27T16:18:03.818Z,14.38
2022-09-27T16:20:32.039Z,14.77
2022-09-27T16:22:58.600Z,14.11
2022-09-27T16:25:25.378Z,14.11
2022-09-27T16:27:52.508Z,14.18
2022-09-27T16:30:20.610Z,14.00
2022-09-27T16:32:48.043Z,13.99
2022-09-27T16:35:15.185Z,13.94
2022-09-27T16:37:41.646Z,13.84
2022-09-27T16:40:08.884Z,13.72
2022-09-27T16:42:35.912Z,13.59
2022-09-27T16:45:07.396Z,13.48
2022-09-27T16:47:36.373Z,13.29
2022-09-27T16:50:22.018Z,13.32
2022-09-27T16:52:50.043Z,13.05
2022-09-27T16:55:21.137Z,12.85
2022-09-27T16:57:48.102Z,12.87
2022-09-27T17:00:15.112Z,12.80
2022-09-27T17:02:43.558Z,12.68
2022-09-27T17:05:11.211Z,12.69
2022-09-27T17:07:37.686Z,12.84
2022-09-27T17:10:04.909Z,12.90
2022-09-27T17:12:31.795Z,13.19
2022-09-27T17:14:58.267Z,13.32
2022-09-27T17:17:25.757Z,13.39
2022-09-27T17:19:52.199Z,13.36
2022-09-27T17:22:18.642Z,13.43
2022-09-27T17:24:45.074Z,13.53
2022-09-27T17:27:11.594Z,13.48
2022-09-27T17:29:38.847Z,13.57
2022-09-27T17:32:08.583Z,13.77
2022-09-27T17:34:43.518Z,13.69
2022-09-27T17:37:10.914Z,13.74
2022-09-27T17:39:38.048Z,13.45
2022-09-27T17:42:04.638Z,13.58
2022-09-27T17:44:31.431Z,13.72
2022-09-27T17:47:18.138Z,13.67
2022-09-27T17:50:22.820Z,13.74
2022-09-27T17:52:49.480Z,13.63
2022-09-27T17:55:15.997Z,13.49
2022-09-27T17:57:42.496Z,13.52
2022-09-27T18:00:09.283Z,13.46
2022-09-27T18:02:42.003Z,13.24
2022-09-27T18:05:09.812Z,13.40
2022-09-27T18:07:37.346Z,13.40
2022-09-27T18:10:04.659Z,13.30
2022-09-27T18:12:34.902Z,13.22
2022-09-27T18:15:02.222Z,13.27
2022-09-27T18:17:28.752Z,13.46
2022-09-27T18:19:56.976Z,13.69
2022-09-27T18:22:29.395Z,13.51
2022-09-27T18:24:55.833Z,13.39
2022-09-27T18:27:22.358Z,13.16
2022-09-27T18:29:48.826Z,13.22
2022-09-27T18:32:15.265Z,13.04
2022-09-27T18:34:41.731Z,13.14
2022-09-27T18:37:08.212Z,12.99
2022-09-27T18:39:34.657Z,13.02
2022-09-27T18:42:01.150Z,13.09
2022-09-27T18:44:28.613Z,12.95
2022-09-27T18:46:55.880Z,12.87
2022-09-27T18:49:26.369Z,12.64
2022-09-27T18:51:54.289Z,12.49
2022-09-27T18:54:21.478Z,12.32
2022-09-27T18:56:48.907Z,12.36
2022-09-27T18:59:15.710Z,12.26
2022-09-27T19:01:45.092Z,12.36
2022-09-27T19:04:13.694Z,12.16
2022-09-27T19:06:40.570Z,12.04
2022-09-27T19:09:07.277Z,11.90
2022-09-27T19:11:36.170Z,11.93
2022-09-27T19:14:02.647Z,11.82
2022-09-27T19:16:29.489Z,11.76
2022-09-27T19:18:56.048Z,11.56
2022-09-27T19:21:24.367Z,11.43
2022-09-27T19:23:51.486Z,11.50
2022-09-27T19:26:19.158Z,11.36
2022-09-27T19:28:46.453Z,11.41
2022-09-27T19:31:14.976Z,11.44
2022-09-27T19:33:41.449Z,11.32
2022-09-27T19:36:09.326Z,11.23
2022-09-27T19:38:36.585Z,11.13
2022-09-27T19:41:04.169Z,11.21
2022-09-27T19:43:33.350Z,11.36
2022-09-27T19:46:15.125Z,11.44
2022-09-27T19:48:42.461Z,11.42
2022-09-27T19:51:12.558Z,11.43
2022-09-27T19:53:39.565Z,11.43
2022-09-27T19:56:07.505Z,11.43
2022-09-27T19:58:34.802Z,11.31
2022-09-27T20:01:06.311Z,11.30
2022-09-27T20:03:33.308Z,11.33
2022-09-27T20:06:00.058Z,11.21
2022-09-27T20:08:27.185Z,11.17
2022-09-27T20:11:06.347Z,11.08
2022-09-27T20:13:33.993Z,10.96
2022-09-27T20:16:03.205Z,11.03
2022-09-27T20:18:29.768Z,11.03
2022-09-27T20:20:59.471Z,10.89
2022-09-27T20:23:25.999Z,10.72
2022-09-27T20:25:52.488Z,10.68
2022-09-27T20:28:18.911Z,10.78
2022-09-27T20:30:54.940Z,10.80
2022-09-27T20:33:40.161Z,10.77
2022-09-27T20:36:16.716Z,10.63
2022-09-27T20:39:09.176Z,10.62
2022-09-27T20:41:36.897Z,10.50
2022-09-27T20:44:05.543Z,10.51
2022-09-27T20:46:32.743Z,10.42
2022-09-27T20:49:00.358Z,10.44
2022-09-27T20:51:27.445Z,10.49
2022-09-27T20:53:54.146Z,10.44
2022-09-27T20:56:22.143Z,10.21
2022-09-27T20:58:49.614Z,10.25
2022-09-27T21:01:16.623Z,10.32
2022-09-27T21:03:43.367Z,10.42
2022-09-27T21:06:09.846Z,10.43
2022-09-27T21:08:36.434Z,10.29
2022-09-27T21:11:04.001Z,10.23
2022-09-27T21:13:30.410Z,10.14
2022-09-27T21:16:01.137Z,10.22
2022-09-27T21:18:27.663Z,10.01
2022-09-27T21:21:00.911Z,9.99
2022-09-27T21:23:29.773Z,9.98
2022-09-27T21:26:02.505Z,10.18
2022-09-27T21:28:33.054Z,9.99
2022-09-27T21:31:01.507Z,9.95
2022-09-27T21:33:27.924Z,9.81
2022-09-27T21:35:54.347Z,9.74
2022-09-27T21:38:22.499Z,9.62
2022-09-27T21:40:56.196Z,9.42
2022-09-27T21:43:26.401Z,9.25
2022-09-27T21:45:52.895Z,9.30
2022-09-27T21:48:19.322Z,9.37
2022-09-27T21:50:45.822Z,9.34
2022-09-27T21:53:12.225Z,9.26
2022-09-27T21:55:38.623Z,9.36
2022-09-27T21:58:05.070Z,9.23
2022-09-27T22:00:31.506Z,9.20
2022-09-27T22:02:58.326Z,9.19
2022-09-27T22:05:24.758Z,9.29
2022-09-27T22:07:51.225Z,9.33
2022-09-27T22:10:17.691Z,9.47
2022-09-27T22:12:44.102Z,9.37
2022-09-27T22:15:10.564Z,9.37
2022-09-27T22:17:36.989Z,9.66
2022-09-27T22:20:03.514Z,9.48
2022-09-27T22:22:30.024Z,9.52
2022-09-27T22:24:56.438Z,9.51
2022-09-27T22:27:22.926Z,9.54
2022-09-27T22:29:49.349Z,9.59
2022-09-27T22:32:15.860Z,9.52
2022-09-27T22:34:42.281Z,9.53
2022-09-27T22:37:08.696Z,9.51
2022-09-27T22:39:35.206Z,9.48
2022-09-27T22:42:01.618Z,9.62
2022-09-27T22:44:28.086Z,9.92
2022-09-27T22:46:54.569Z,9.97
2022-09-27T22:49:21.298Z,9.70
2022-09-27T22:51:47.762Z,9.66
2022-09-27T22:54:14.362Z,9.49
2022-09-27T22:56:40.825Z,9.50
2022-09-27T22:59:07.347Z,9.65
2022-09-27T23:01:35.040Z,9.64
2022-09-27T23:04:01.754Z,9.73
2022-09-27T23:06:28.331Z,9.70
2022-09-27T23:08:56.249Z,9.70
2022-09-27T23:11:23.019Z,9.60
2022-09-27T23:13:50.163Z,9.47
2022-09-27T23:16:18.496Z,9.60
2022-09-27T23:18:46.358Z,9.74
2022-09-27T23:21:14.166Z,9.77
2022-09-27T23:23:41.898Z,9.72
2022-09-27T23:26:10.263Z,9.71
2022-09-27T23:28:36.919Z,9.68
2022-09-27T23:31:08.303Z,9.68
2022-09-27T23:33:35.937Z,9.60
2022-09-27T23:36:02.946Z,9.49
2022-09-27T23:38:30.771Z,9.62
2022-09-27T23:40:57.551Z,9.51
2022-09-27T23:43:24.107Z,9.49
2022-09-27T23:45:50.876Z,9.74
2022-09-27T23:48:18.026Z,9.70
2022-09-27T23:50:44.544Z,9.68
2022-09-27T23:53:10.953Z,9.70
2022-09-27T23:55:37.369Z,9.72
2022-09-27T23:58:03.794Z,9.77
